createdAt,value
2019-05-17T00:02:12.569Z,97434.55
2019-05-17T00:04:43.464Z,97427.39
2019-05-17T00:07:16.756Z,97423.95
2019-05-17T00:09:47.887Z,97422.80
2019-05-17T00:12:19.190Z,97413.00
2019-05-17T00:14:50.188Z,97413.91
2019-05-17T00:17:22.617Z,97411.07
2019-05-17T00:19:53.788Z,97410.34
2019-05-17T00:22:26.878Z,97406.27
2019-05-17T00:24:57.845Z,97401.86
2019-05-17T00:27:28.873Z,97395.95
2019-05-17T00:30:00.131Z,97395.04
2019-05-17T00:32:31.091Z,97388.61
2019-05-17T00:35:02.333Z,97385.72
2019-05-17T00:37:33.313Z,97376.77
2019-05-17T00:40:08.784Z,97378.56
2019-05-17T00:42:39.692Z,97374.77
2019-05-17T00:45:11.003Z,97367.56
2019-05-17T00:47:42.149Z,97373.41
2019-05-17T00:50:12.627Z,97372.55
2019-05-17T00:52:43.988Z,97367.43
2019-05-17T00:55:17.304Z,97368.84
2019-05-17T00:57:48.084Z,97368.45
2019-05-17T01:00:19.545Z,97365.55
2019-05-17T01:02:50.779Z,97363.92
2019-05-17T01:05:21.766Z,97359.52
2019-05-17T01:07:52.907Z,97357.95
2019-05-17T01:10:23.904Z,97356.66
2019-05-17T01:12:57.400Z,97356.06
2019-05-17T01:15:27.936Z,97353.59
2019-05-17T01:17:59.275Z,97354.69
2019-05-17T01:20:32.944Z,97354.35
2019-05-17T01:23:04.263Z,97351.06
2019-05-17T01:25:36.844Z,97350.78
2019-05-17T01:28:07.857Z,97348.78
2019-05-17T01:30:39.258Z,97346.05
2019-05-17T01:33:10.217Z,97344.17
2019-05-17T01:35:41.323Z,97341.29
2019-05-17T01:38:12.464Z,97344.78
2019-05-17T01:40:43.942Z,97342.39
2019-05-17T01:43:16.623Z,97336.36
2019-05-17T01:45:48.152Z,97340.25
2019-05-17T01:48:19.043Z,97341.99
2019-05-17T01:50:50.130Z,97342.34
2019-05-17T01:53:21.188Z,97346.78
2019-05-17T01:55:52.656Z,97348.37
2019-05-17T01:58:23.586Z,97351.27
2019-05-17T02:00:53.680Z,97352.35
2019-05-17T02:03:26.749Z,97352.06
2019-05-17T02:05:57.503Z,97354.84
2019-05-17T02:08:29.347Z,97348.92
2019-05-17T02:11:00.267Z,97348.31
2019-05-17T02:13:31.500Z,97346.63
2019-05-17T02:16:02.576Z,97340.95
2019-05-17T02:18:33.723Z,97342.19
2019-05-17T02:21:06.558Z,97335.98
2019-05-17T02:23:37.900Z,97339.67
2019-05-17T02:26:08.972Z,97333.29
2019-05-17T02:28:41.456Z,97335.48
2019-05-17T02:31:13.348Z,97334.88
2019-05-17T02:33:46.211Z,97334.37
2019-05-17T02:36:17.334Z,97330.34
2019-05-17T02:38:47.447Z,97326.72
2019-05-17T02:41:18.692Z,97327.88
2019-05-17T02:43:53.212Z,97332.16
2019-05-17T02:46:23.181Z,97332.59
2019-05-17T02:48:54.237Z,97332.63
2019-05-17T02:51:25.311Z,97333.13
2019-05-17T02:53:56.295Z,97339.44
2019-05-17T02:56:27.545Z,97334.87
2019-05-17T02:58:58.419Z,97332.53
2019-05-17T03:01:32.847Z,97335.16
2019-05-17T03:04:03.832Z,97333.21
2019-05-17T03:06:35.405Z,97330.06
2019-05-17T03:09:06.878Z,97331.16
2019-05-17T03:11:36.947Z,97334.72
2019-05-17T03:14:08.194Z,97324.48
2019-05-17T03:16:39.159Z,97326.72
2019-05-17T03:19:13.029Z,97324.53
2019-05-17T03:21:43.298Z,97323.23
2019-05-17T03:24:14.425Z,97323.02
2019-05-17T03:26:45.361Z,97324.78
2019-05-17T03:29:16.643Z,97323.77
2019-05-17T03:31:58.018Z,97323.98
2019-05-17T03:34:26.279Z,97330.11
2019-05-17T03:36:56.795Z,97326.95
2019-05-17T03:39:28.522Z,97333.36
2019-05-17T03:42:02.425Z,97339.44
2019-05-17T03:44:33.537Z,97331.72
2019-05-17T03:47:05.362Z,97332.56
2019-05-17T03:49:39.168Z,97340.23
2019-05-17T03:52:08.359Z,97338.04
2019-05-17T03:54:39.303Z,97333.66
2019-05-17T03:57:13.344Z,97328.25
2019-05-17T03:59:43.289Z,97337.46
2019-05-17T04:02:14.592Z,97338.36
2019-05-17T04:04:45.574Z,97335.88
2019-05-17T04:07:16.698Z,97331.41
2019-05-17T04:09:47.731Z,97330.71
2019-05-17T04:12:19.064Z,97334.30
2019-05-17T04:14:53.077Z,97339.02
2019-05-17T04:17:23.117Z,97339.26
2019-05-17T04:19:54.056Z,97334.39
2019-05-17T04:22:24.124Z,97338.36
2019-05-17T04:24:55.432Z,97333.92
2019-05-17T04:27:26.499Z,97340.53
2019-05-17T04:29:57.687Z,97338.59
2019-05-17T04:32:28.724Z,97338.53
2019-05-17T04:35:03.319Z,97343.72
2019-05-17T04:37:34.004Z,97344.64
2019-05-17T04:40:07.060Z,97343.09
2019-05-17T04:42:38.095Z,97345.77
2019-05-17T04:45:12.452Z,97335.55
2019-05-17T04:47:44.209Z,97332.30
2019-05-17T04:50:23.065Z,97331.13
2019-05-17T04:52:54.047Z,97330.23
2019-05-17T04:55:25.237Z,97332.05
2019-05-17T04:58:07.475Z,97333.73
2019-05-17T05:00:46.314Z,97334.44
2019-05-17T05:09:23.954Z,97331.74
2019-05-17T05:12:01.192Z,97329.70
2019-05-17T05:14:32.727Z,97331.84
2019-05-17T05:17:02.392Z,97326.99
2019-05-17T05:19:33.135Z,97331.52
2019-05-17T05:22:04.877Z,97328.34
2019-05-17T05:24:36.215Z,97328.07
2019-05-17T05:27:07.204Z,97328.58
2019-05-17T05:29:38.509Z,97334.84
2019-05-17T05:32:11.675Z,97329.91
2019-05-17T05:34:42.920Z,97326.28
2019-05-17T05:37:14.824Z,97322.95
2019-05-17T05:39:46.128Z,97323.99
2019-05-17T05:42:17.228Z,97319.22
2019-05-17T05:44:48.561Z,97320.38
2019-05-17T05:47:19.527Z,97323.67
2019-05-17T05:49:52.048Z,97328.77
2019-05-17T05:52:23.052Z,97319.38
2019-05-17T05:54:53.108Z,97316.20
2019-05-17T05:57:24.280Z,97324.14
2019-05-17T05:59:55.805Z,97326.27
2019-05-17T06:02:27.180Z,97330.67
2019-05-17T06:04:58.170Z,97327.50
2019-05-17T06:07:32.047Z,97336.70
2019-05-17T06:10:02.391Z,97334.35
2019-05-17T06:12:33.716Z,97334.61
2019-05-17T06:15:08.780Z,97330.45
2019-05-17T06:17:43.272Z,97333.59
2019-05-17T06:20:15.240Z,97327.94
2019-05-17T06:22:46.390Z,97332.41
2019-05-17T06:25:17.525Z,97333.53
2019-05-17T06:27:47.658Z,97328.95
2019-05-17T06:30:21.819Z,97332.12
2019-05-17T06:32:52.336Z,97331.19
2019-05-17T06:35:23.618Z,97327.13
2019-05-17T06:37:54.586Z,97334.77
2019-05-17T06:40:25.873Z,97324.60
2019-05-17T06:42:56.901Z,97325.44
2019-05-17T06:45:28.284Z,97332.03
2019-05-17T06:47:59.266Z,97318.86
2019-05-17T06:50:32.602Z,97331.63
2019-05-17T06:53:12.638Z,97325.24
2019-05-17T06:55:44.074Z,97332.06
2019-05-17T06:58:15.124Z,97322.98
2019-05-17T07:00:45.282Z,97321.22
2019-05-17T07:03:16.513Z,97325.24
2019-05-17T07:05:50.234Z,97322.47
2019-05-17T07:08:30.100Z,97314.17
2019-05-17T07:11:03.395Z,97311.20
2019-05-17T07:13:34.564Z,97306.92
2019-05-17T07:16:05.604Z,97305.74
2019-05-17T07:18:36.798Z,97305.84
2019-05-17T07:21:10.032Z,97298.60
2019-05-17T07:23:41.166Z,97292.18
2019-05-17T07:26:12.215Z,97293.80
2019-05-17T07:28:43.470Z,97283.75
2019-05-17T07:31:14.555Z,97286.36
2019-05-17T07:33:45.654Z,97287.78
2019-05-17T07:36:16.758Z,97284.80
2019-05-17T07:38:46.916Z,97278.77
2019-05-17T07:41:20.273Z,97274.58
2019-05-17T07:43:50.909Z,97278.16
2019-05-17T07:46:22.096Z,97276.18
2019-05-17T07:48:53.094Z,97267.30
2019-05-17T07:51:24.216Z,97269.02
2019-05-17T07:53:55.140Z,97260.94
2019-05-17T07:56:26.364Z,97255.92
2019-05-17T07:58:57.335Z,97254.10
2019-05-17T08:01:29.685Z,97254.61
2019-05-17T08:04:00.912Z,97249.45
2019-05-17T08:06:32.066Z,97252.23
2019-05-17T08:09:04.541Z,97239.69
2019-05-17T08:11:34.776Z,97236.11
2019-05-17T08:14:06.148Z,97229.89
2019-05-17T08:16:39.370Z,97231.91
2019-05-17T08:19:10.132Z,97230.00
2019-05-17T08:21:41.113Z,97220.67
2019-05-17T08:24:12.372Z,97221.56
2019-05-17T08:26:43.322Z,97220.89
2019-05-17T08:29:14.570Z,97217.40
2019-05-17T08:31:45.435Z,97223.45
2019-05-17T08:34:16.622Z,97215.67
2019-05-17T08:36:49.819Z,97214.72
2019-05-17T08:39:20.744Z,97212.84
2019-05-17T08:41:51.713Z,97211.17
2019-05-17T08:44:22.931Z,97209.44
2019-05-17T08:46:53.940Z,97211.13
2019-05-17T08:49:24.055Z,97202.48
2019-05-17T08:51:59.471Z,97205.70
2019-05-17T08:54:32.829Z,97210.77
2019-05-17T08:57:04.083Z,97195.86
2019-05-17T08:59:35.070Z,97199.41
2019-05-17T09:02:06.234Z,97193.27
2019-05-17T09:04:37.153Z,97196.83
2019-05-17T09:07:09.462Z,97191.70
2019-05-17T09:09:40.495Z,97197.58
2019-05-17T09:12:11.828Z,97192.17
2019-05-17T09:14:42.813Z,97193.16
2019-05-17T09:17:14.002Z,97187.61
2019-05-17T09:19:44.996Z,97185.91
2019-05-17T09:22:15.108Z,97180.58
2019-05-17T09:24:46.217Z,97184.46
2019-05-17T09:27:19.598Z,97179.36
2019-05-17T09:29:50.023Z,97174.64
2019-05-17T09:32:21.015Z,97177.33
2019-05-17T09:34:52.211Z,97176.92
2019-05-17T09:37:23.109Z,97173.06
2019-05-17T09:39:54.237Z,97174.81
2019-05-17T09:42:25.173Z,97171.14
2019-05-17T09:44:56.609Z,97167.29
2019-05-17T09:47:29.943Z,97163.13
2019-05-17T09:50:00.761Z,97166.94
2019-05-17T09:52:31.690Z,97165.77
2019-05-17T09:55:01.748Z,97165.48
2019-05-17T09:57:32.877Z,97165.40
2019-05-17T10:00:05.673Z,97163.84
2019-05-17T10:02:36.831Z,97152.81
2019-05-17T10:05:10.569Z,97151.47
2019-05-17T10:07:41.798Z,97153.17
2019-05-17T10:10:12.998Z,97153.87
2019-05-17T10:12:44.228Z,97147.73
2019-05-17T10:15:15.255Z,97151.73
2019-05-17T10:17:46.556Z,97148.00
2019-05-17T10:20:19.848Z,97143.84
2019-05-17T10:22:50.675Z,97143.76
2019-05-17T10:25:21.663Z,97140.80
2019-05-17T10:27:52.917Z,97140.03
2019-05-17T10:30:23.985Z,97139.73
2019-05-17T10:32:54.780Z,97133.69
2019-05-17T10:35:26.053Z,97132.79
2019-05-17T10:37:59.363Z,97127.77
2019-05-17T10:40:30.106Z,97132.75
2019-05-17T10:43:01.146Z,97135.61
2019-05-17T10:45:32.386Z,97127.38
2019-05-17T10:48:03.421Z,97126.38
2019-05-17T10:50:34.532Z,97119.03
2019-05-17T10:53:05.567Z,97117.75
2019-05-17T10:55:36.960Z,97124.84
2019-05-17T10:58:10.030Z,97118.97
2019-05-17T11:00:41.619Z,97119.80
2019-05-17T11:03:12.858Z,97121.42
2019-05-17T11:05:42.933Z,97109.00
2019-05-17T11:08:14.055Z,97102.55
2019-05-17T11:10:45.120Z,97106.56
2019-05-17T11:13:16.290Z,97105.20
2019-05-17T11:15:47.389Z,97103.47
2019-05-17T11:18:18.789Z,97098.38
2019-05-17T11:20:49.740Z,97099.61
2019-05-17T11:23:20.905Z,97098.38
2019-05-17T11:25:51.918Z,97103.86
2019-05-17T11:28:23.383Z,97103.86
2019-05-17T11:30:54.413Z,97089.95
2019-05-17T11:33:24.480Z,97095.57
2019-05-17T11:35:55.646Z,97093.88
2019-05-17T11:38:26.748Z,97093.82
2019-05-17T11:40:57.852Z,97093.47
2019-05-17T11:43:28.819Z,97089.87
2019-05-17T11:46:00.142Z,97087.01
2019-05-17T11:48:31.126Z,97095.42
2019-05-17T11:51:02.361Z,97092.70
2019-05-17T11:53:33.363Z,97086.03
2019-05-17T11:56:04.606Z,97083.44
2019-05-17T11:58:35.540Z,97086.39
2019-05-17T12:01:06.814Z,97075.02
2019-05-17T12:03:37.894Z,97084.06
2019-05-17T12:06:08.101Z,97075.06
2019-05-17T12:08:39.355Z,97072.20
2019-05-17T12:11:10.310Z,97068.60
2019-05-17T12:13:43.622Z,97073.75
2019-05-17T12:16:14.582Z,97072.15
2019-05-17T12:18:48.811Z,97060.70
2019-05-17T12:21:19.823Z,97064.02
2019-05-17T12:23:50.986Z,97067.40
2019-05-17T12:26:21.936Z,97059.59
2019-05-17T12:28:53.148Z,97061.09
2019-05-17T12:31:24.034Z,97055.31
2019-05-17T12:33:55.222Z,97051.23
2019-05-17T12:36:26.334Z,97051.95
2019-05-17T12:38:57.517Z,97051.70
2019-05-17T12:41:28.494Z,97038.87
2019-05-17T12:43:58.564Z,97035.33
2019-05-17T12:46:29.874Z,97032.32
2019-05-17T12:49:02.073Z,97026.80
2019-05-17T12:51:33.602Z,97022.55
2019-05-17T12:54:04.684Z,97022.36
2019-05-17T12:56:35.943Z,97018.20
2019-05-17T12:59:07.012Z,97013.40
2019-05-17T13:01:38.202Z,97014.44
2019-05-17T13:04:09.109Z,97014.35
2019-05-17T13:06:40.259Z,97005.34
2019-05-17T13:09:11.202Z,97012.46
2019-05-17T13:11:42.368Z,97015.32
2019-05-17T13:14:13.331Z,97014.78
2019-05-17T13:16:44.582Z,97018.20
2019-05-17T13:19:15.743Z,97009.61
2019-05-17T13:21:46.703Z,97003.68
2019-05-17T13:24:17.941Z,96997.82
2019-05-17T13:26:48.918Z,97006.29
2019-05-17T13:29:20.121Z,96983.54
2019-05-17T13:31:51.183Z,96990.70
2019-05-17T13:34:22.495Z,96990.70
2019-05-17T13:36:56.532Z,96988.00
2019-05-17T13:39:27.655Z,96996.64
2019-05-17T13:41:58.631Z,96989.20
2019-05-17T13:44:29.865Z,96969.48
2019-05-17T13:47:00.909Z,96976.50
2019-05-17T13:49:31.040Z,96974.55
2019-05-17T13:52:02.478Z,96974.55
2019-05-17T13:54:33.485Z,96979.09
2019-05-17T13:57:04.703Z,96977.73
2019-05-17T13:59:37.323Z,96963.17
2019-05-17T14:02:08.578Z,96963.17
2019-05-17T14:04:39.549Z,96960.31
2019-05-17T14:07:10.798Z,96960.31
2019-05-17T14:09:41.918Z,96961.33
2019-05-17T14:12:13.134Z,96968.83
2019-05-17T14:14:44.098Z,96965.11
2019-05-17T14:17:15.414Z,96962.60
2019-05-17T14:19:46.276Z,96965.41
2019-05-17T14:22:16.471Z,96964.89
2019-05-17T14:24:47.720Z,96964.15
2019-05-17T14:27:18.801Z,96964.45
2019-05-17T14:29:50.008Z,96965.89
2019-05-17T14:32:20.955Z,96962.73
2019-05-17T14:34:52.125Z,96966.02
2019-05-17T14:37:23.125Z,96964.83
2019-05-17T14:39:54.508Z,96968.69
2019-05-17T14:42:25.827Z,96969.06
2019-05-17T14:44:58.709Z,96959.97
2019-05-17T14:47:29.736Z,96965.13
2019-05-17T14:50:01.075Z,96956.91
2019-05-17T14:52:31.949Z,96966.14
2019-05-17T14:55:02.342Z,96954.80
2019-05-17T14:57:35.282Z,96951.73
2019-05-17T15:00:07.731Z,96949.61
2019-05-17T15:02:38.958Z,96946.38
2019-05-17T15:05:10.305Z,96939.46
2019-05-17T15:07:41.518Z,96928.53
2019-05-17T15:10:12.928Z,96942.23
2019-05-17T15:12:44.157Z,96944.37
2019-05-17T15:15:25.688Z,96942.11
2019-05-17T15:17:47.964Z,96932.67
2019-05-17T15:20:19.097Z,96930.61
2019-05-17T15:22:50.361Z,96938.86
2019-05-17T15:25:21.270Z,96929.77
2019-05-17T15:27:52.481Z,96931.55
2019-05-17T15:30:23.518Z,96931.47
2019-05-17T15:32:54.273Z,96925.92
2019-05-17T15:35:25.423Z,96926.17
2019-05-17T15:37:56.437Z,96924.91
2019-05-17T15:40:27.766Z,96921.06
2019-05-17T15:42:58.714Z,96915.16
2019-05-17T15:45:29.967Z,96914.14
2019-05-17T15:48:01.042Z,96919.65
2019-05-17T15:50:32.302Z,96911.64
2019-05-17T15:53:03.380Z,96913.34
2019-05-17T15:55:34.439Z,96903.45
2019-05-17T15:58:05.517Z,96900.85
2019-05-17T16:00:36.731Z,96905.35
2019-05-17T16:03:07.758Z,96902.73
2019-05-17T16:05:37.872Z,96894.68
2019-05-17T16:08:09.020Z,96895.02
2019-05-17T16:10:40.173Z,96899.53
2019-05-17T16:13:11.551Z,96897.02
2019-05-17T16:15:42.513Z,96893.72
2019-05-17T16:18:13.595Z,96894.05
2019-05-17T16:20:44.654Z,96893.73
2019-05-17T16:23:16.022Z,96892.20
2019-05-17T16:25:47.048Z,96895.61
2019-05-17T16:28:18.511Z,96891.78
2019-05-17T16:30:49.567Z,96891.75
2019-05-17T16:33:20.792Z,96895.44
2019-05-17T16:35:51.825Z,96893.89
2019-05-17T16:38:21.962Z,96891.91
2019-05-17T16:40:53.245Z,96895.59
2019-05-17T16:43:24.196Z,96887.44
2019-05-17T16:45:55.362Z,96885.28
2019-05-17T16:48:26.242Z,96886.24
2019-05-17T16:50:57.572Z,96890.91
2019-05-17T16:53:28.516Z,96887.09
2019-05-17T16:56:00.548Z,96870.22
2019-05-17T16:58:31.536Z,96888.59
2019-05-17T17:01:03.747Z,96884.08
2019-05-17T17:03:44.200Z,96881.56
2019-05-17T17:06:10.291Z,96889.11
2019-05-17T17:08:41.964Z,96885.47
2019-05-17T17:11:12.206Z,96888.28
2019-05-17T17:13:43.476Z,96888.51
2019-05-17T17:16:14.490Z,96888.30
2019-05-17T17:18:45.717Z,96884.22
2019-05-17T17:21:16.684Z,96878.63
2019-05-17T17:23:48.004Z,96878.63
2019-05-17T17:26:18.946Z,96887.33
2019-05-17T17:28:50.211Z,96894.43
2019-05-17T17:31:21.395Z,96888.59
2019-05-17T17:33:52.809Z,96884.43
2019-05-17T17:36:24.436Z,96887.05
2019-05-17T17:38:55.543Z,96885.80
2019-05-17T17:41:26.884Z,96884.48
2019-05-17T17:43:59.204Z,96890.32
2019-05-17T17:46:30.301Z,96883.22
2019-05-17T17:49:01.471Z,96878.69
2019-05-17T17:51:32.764Z,96882.11
2019-05-17T17:54:03.678Z,96880.42
2019-05-17T17:56:34.891Z,96878.59
2019-05-17T17:59:06.000Z,96871.02
2019-05-17T18:01:37.340Z,96871.73
2019-05-17T18:04:08.380Z,96877.66
2019-05-17T18:06:39.608Z,96876.98
2019-05-17T18:09:10.589Z,96879.02
2019-05-17T18:11:41.912Z,96876.18
2019-05-17T18:14:13.966Z,96874.95
2019-05-17T18:16:44.373Z,96873.64
2019-05-17T18:19:15.531Z,96879.88
2019-05-17T18:21:46.595Z,96882.19
2019-05-17T18:24:17.897Z,96883.47
2019-05-17T18:26:48.815Z,96889.08
2019-05-17T18:29:20.161Z,96888.31
2019-05-17T18:31:51.261Z,96885.88
2019-05-17T18:34:22.440Z,96892.66
2019-05-17T18:36:53.423Z,96894.56
2019-05-17T18:39:24.652Z,96895.37
2019-05-17T18:41:55.775Z,96891.67
2019-05-17T18:44:28.195Z,96892.34
2019-05-17T18:46:59.386Z,96894.93
2019-05-17T18:49:29.394Z,96903.86
2019-05-17T18:52:00.647Z,96906.52
2019-05-17T18:54:31.611Z,96907.06
2019-05-17T18:57:02.834Z,96911.59
2019-05-17T18:59:33.748Z,96916.66
2019-05-17T19:02:05.129Z,96915.75
2019-05-17T19:04:36.173Z,96921.89
2019-05-17T19:07:07.470Z,96927.16
2019-05-17T19:09:38.465Z,96929.94
2019-05-17T19:12:09.637Z,96919.55
2019-05-17T19:14:43.060Z,96933.67
2019-05-17T19:17:13.363Z,96934.39
2019-05-17T19:19:44.341Z,96933.83
2019-05-17T19:22:14.536Z,96936.73
2019-05-17T19:24:45.779Z,96937.48
2019-05-17T19:27:16.689Z,96942.05
2019-05-17T19:29:47.840Z,96944.33
2019-05-17T19:32:18.868Z,96948.77
2019-05-17T19:34:50.101Z,96955.20
2019-05-17T19:37:21.712Z,96953.08
2019-05-17T19:39:52.951Z,96955.95
2019-05-17T19:42:23.957Z,96959.77
2019-05-17T19:44:59.199Z,96961.06
2019-05-17T19:47:27.907Z,96960.00
2019-05-17T19:49:59.109Z,96965.02
2019-05-17T19:52:30.093Z,96966.81
2019-05-17T19:55:00.211Z,96964.06
2019-05-17T19:57:31.360Z,96969.55
2019-05-17T20:00:02.379Z,96963.84
2019-05-17T20:02:33.603Z,96968.58
2019-05-17T20:05:06.582Z,96970.25
2019-05-17T20:07:39.392Z,96973.83
2019-05-17T20:10:12.748Z,96971.90
2019-05-17T20:12:44.080Z,96976.97
2019-05-17T20:15:17.801Z,96977.58
2019-05-17T20:17:48.413Z,96980.31
2019-05-17T20:20:19.576Z,96973.25
2019-05-17T20:22:50.908Z,96973.24
2019-05-17T20:25:21.940Z,96974.66
2019-05-17T20:27:53.098Z,96970.25
2019-05-17T20:30:24.110Z,96970.81
2019-05-17T20:32:54.322Z,96976.53
2019-05-17T20:35:25.584Z,96976.86
2019-05-17T20:37:56.453Z,96974.34
2019-05-17T20:40:27.720Z,96972.06
2019-05-17T20:42:58.757Z,96972.48
2019-05-17T20:45:33.100Z,96961.38
2019-05-17T20:48:02.775Z,96964.12
2019-05-17T20:50:34.095Z,96959.58
2019-05-17T20:53:18.004Z,96962.30
2019-05-17T20:55:37.962Z,96958.25
2019-05-17T20:58:09.009Z,96954.90
2019-05-17T21:00:40.184Z,96955.27
2019-05-17T21:03:13.853Z,96963.44
2019-05-17T21:05:43.010Z,96961.42
2019-05-17T21:08:14.146Z,96971.89
2019-05-17T21:10:46.928Z,96968.28
2019-05-17T21:13:18.100Z,96970.30
2019-05-17T21:15:49.062Z,96963.84
2019-05-17T21:18:20.246Z,96960.95
2019-05-17T21:20:51.222Z,96959.00
2019-05-17T21:23:22.526Z,96965.61
2019-05-17T21:25:53.451Z,96961.05
2019-05-17T21:28:24.653Z,96965.19
2019-05-17T21:30:55.622Z,96964.05
2019-05-17T21:33:26.776Z,96969.92
2019-05-17T21:35:57.661Z,96974.75
2019-05-17T21:38:27.780Z,96973.50
2019-05-17T21:40:58.944Z,96976.98
2019-05-17T21:43:29.960Z,96978.06
2019-05-17T21:46:04.067Z,96977.98
2019-05-17T21:48:33.781Z,96976.37
2019-05-17T21:51:05.094Z,96975.86
2019-05-17T21:53:35.968Z,96980.87
2019-05-17T21:56:07.271Z,96981.23
2019-05-17T21:58:38.280Z,96981.11
2019-05-17T22:01:16.533Z,96980.78
2019-05-17T22:03:47.570Z,96976.13
2019-05-17T22:06:18.946Z,96974.25
2019-05-17T22:08:49.968Z,96978.49
2019-05-17T22:11:21.123Z,96979.34
2019-05-17T22:13:52.214Z,96977.83
2019-05-17T22:16:22.427Z,96976.94
2019-05-17T22:18:53.610Z,96982.72
2019-05-17T22:21:24.510Z,96985.45
2019-05-17T22:23:55.714Z,96990.14
2019-05-17T22:26:26.766Z,96986.69
2019-05-17T22:28:57.910Z,96984.94
2019-05-17T22:31:28.945Z,96992.77
2019-05-17T22:34:00.179Z,96983.66
2019-05-17T22:36:31.130Z,96978.66
2019-05-17T22:39:02.287Z,96979.30
2019-05-17T22:41:33.273Z,96971.78
2019-05-17T22:44:04.553Z,96979.69
2019-05-17T22:46:36.658Z,96974.95
2019-05-17T22:49:06.909Z,96971.34
2019-05-17T22:51:38.093Z,96970.98
2019-05-17T22:54:09.053Z,96979.38
2019-05-17T22:56:40.368Z,96974.81
2019-05-17T22:59:11.217Z,96975.74
2019-05-17T23:01:42.395Z,96980.88
2019-05-17T23:04:13.373Z,96984.20
2019-05-17T23:06:44.521Z,96984.32
2019-05-17T23:09:15.475Z,96975.92
2019-05-17T23:11:46.799Z,96973.70
2019-05-17T23:14:17.769Z,96976.94
2019-05-17T23:16:51.929Z,96976.09
2019-05-17T23:19:21.733Z,96971.80
2019-05-17T23:21:51.835Z,96970.78
2019-05-17T23:24:23.085Z,96974.14
2019-05-17T23:26:54.096Z,96967.52
2019-05-17T23:29:25.290Z,96966.41
2019-05-17T23:31:56.281Z,96968.64
2019-05-17T23:34:27.424Z,96968.77
2019-05-17T23:36:58.388Z,96966.24
2019-05-17T23:39:29.733Z,96967.00
2019-05-17T23:42:00.738Z,96969.90
2019-05-17T23:44:32.009Z,96973.42
2019-05-17T23:47:07.147Z,96971.19
2019-05-17T23:49:36.054Z,96971.52
2019-05-17T23:52:07.042Z,96970.03
2019-05-17T23:54:37.106Z,96966.20
2019-05-17T23:57:08.182Z,96970.47
2019-05-17T23:59:39.167Z,96969.84
